sensor_id;sensor_type;location;lat;lon;timestamp;P1;durP1;ratioP1;P2;durP2;ratioP2
36599;SDS011;35385;55.668;37.508;2022-09-21T00:01:12;8.70;;;5.23;;
36599;SDS011;35385;55.668;37.508;2022-09-21T00:02:17;7.65;;;4.63;;
36599;SDS011;35385;55.668;37.508;2022-09-21T00:03:18;10.37;;;4.57;;
36599;SDS011;35385;55.668;37.508;2022-09-21T00:04:19;8.43;;;4.83;;
36599;SDS011;35385;55.668;37.508;2022-09-21T00:05:19;7.70;;;4.33;;
36599;SDS011;35385;55.668;37.508;2022-09-21T00:06:20;7.73;;;4.60;;
36599;SDS011;35385;55.668;37.508;2022-09-21T00:07:22;6.78;;;4.72;;
36599;SDS011;35385;55.668;37.508;2022-09-21T00:08:22;8.40;;;5.17;;
36599;SDS011;35385;55.668;37.508;2022-09-21T00:09:24;6.30;;;5.13;;
36599;SDS011;35385;55.668;37.508;2022-09-21T00:10:24;7.43;;;4.50;;
36599;SDS011;35385;55.668;37.508;2022-09-21T00:11:26;8.02;;;4.88;;
36599;SDS011;35385;55.668;37.508;2022-09-21T00:12:29;6.32;;;4.97;;
36599;SDS011;35385;55.668;37.508;2022-09-21T00:13:31;8.32;;;5.13;;
36599;SDS011;35385;55.668;37.508;2022-09-21T00:14:33;6.93;;;5.38;;
36599;SDS011;35385;55.668;37.508;2022-09-21T00:15:34;8.90;;;5.67;;
36599;SDS011;35385;55.668;37.508;2022-09-21T00:16:34;7.53;;;5.43;;
36599;SDS011;35385;55.668;37.508;2022-09-21T00:17:36;10.80;;;6.10;;
36599;SDS011;35385;55.668;37.508;2022-09-21T00:18:36;10.00;;;6.15;;
36599;SDS011;35385;55.668;37.508;2022-09-21T00:19:37;7.78;;;5.57;;
36599;SDS011;35385;55.668;37.508;2022-09-21T00:20:40;8.50;;;5.73;;
36599;SDS011;35385;55.668;37.508;2022-09-21T00:21:42;10.55;;;5.65;;
36599;SDS011;35385;55.668;37.508;2022-09-21T00:22:43;10.63;;;6.00;;
36599;SDS011;35385;55.668;37.508;2022-09-21T00:23:44;7.73;;;5.70;;
36599;SDS011;35385;55.668;37.508;2022-09-21T00:24:45;11.10;;;5.82;;
36599;SDS011;35385;55.668;37.508;2022-09-21T00:25:46;6.27;;;5.63;;
36599;SDS011;35385;55.668;37.508;2022-09-21T00:26:46;26.63;;;16.67;;
36599;SDS011;35385;55.668;37.508;2022-09-21T00:27:47;9.60;;;6.83;;
36599;SDS011;35385;55.668;37.508;2022-09-21T00:28:53;9.75;;;6.40;;
36599;SDS011;35385;55.668;37.508;2022-09-21T00:29:59;9.13;;;6.13;;
36599;SDS011;35385;55.668;37.508;2022-09-21T00:31:04;9.20;;;6.95;;
36599;SDS011;35385;55.668;37.508;2022-09-21T00:32:06;10.27;;;6.60;;
36599;SDS011;35385;55.668;37.508;2022-09-21T00:33:07;10.47;;;5.87;;
36599;SDS011;35385;55.668;37.508;2022-09-21T00:34:07;9.97;;;6.37;;
36599;SDS011;35385;55.668;37.508;2022-09-21T00:35:08;7.70;;;5.93;;
36599;SDS011;35385;55.668;37.508;2022-09-21T00:36:13;7.77;;;6.10;;
36599;SDS011;35385;55.668;37.508;2022-09-21T00:37:18;7.95;;;6.15;;
36599;SDS011;35385;55.668;37.508;2022-09-21T00:38:19;8.95;;;6.30;;
36599;SDS011;35385;55.668;37.508;2022-09-21T00:39:20;8.57;;;5.77;;
36599;SDS011;35385;55.668;37.508;2022-09-21T00:40:20;7.17;;;5.77;;
36599;SDS011;35385;55.668;37.508;2022-09-21T00:41:21;11.17;;;6.67;;
36599;SDS011;35385;55.668;37.508;2022-09-21T00:43:25;8.55;;;6.07;;
36599;SDS011;35385;55.668;37.508;2022-09-21T00:44:30;12.00;;;6.15;;
36599;SDS011;35385;55.668;37.508;2022-09-21T00:45:31;13.95;;;6.18;;
36599;SDS011;35385;55.668;37.508;2022-09-21T00:46:32;7.67;;;6.00;;
36599;SDS011;35385;55.668;37.508;2022-09-21T00:47:37;9.48;;;6.05;;
36599;SDS011;35385;55.668;37.508;2022-09-21T00:48:41;7.93;;;6.03;;
36599;SDS011;35385;55.668;37.508;2022-09-21T00:49:43;8.98;;;5.78;;
36599;SDS011;35385;55.668;37.508;2022-09-21T00:50:48;7.55;;;5.45;;
36599;SDS011;35385;55.668;37.508;2022-09-21T00:51:53;7.60;;;5.82;;
36599;SDS011;35385;55.668;37.508;2022-09-21T00:52:55;7.95;;;5.95;;
36599;SDS011;35385;55.668;37.508;2022-09-21T00:53:59;8.45;;;6.20;;
36599;SDS011;35385;55.668;37.508;2022-09-21T00:55:18;9.48;;;5.88;;
36599;SDS011;35385;55.668;37.508;2022-09-21T00:56:20;11.48;;;6.43;;
36599;SDS011;35385;55.668;37.508;2022-09-21T00:57:22;7.28;;;5.43;;
36599;SDS011;35385;55.668;37.508;2022-09-21T00:58:27;8.15;;;5.60;;
36599;SDS011;35385;55.668;37.508;2022-09-21T00:59:31;7.45;;;5.65;;
36599;SDS011;35385;55.668;37.508;2022-09-21T01:00:35;11.65;;;5.72;;
36599;SDS011;35385;55.668;37.508;2022-09-21T01:01:36;6.35;;;4.97;;
36599;SDS011;35385;55.668;37.508;2022-09-21T01:02:37;9.85;;;5.80;;
36599;SDS011;35385;55.668;37.508;2022-09-21T01:03:38;6.73;;;5.83;;
36599;SDS011;35385;55.668;37.508;2022-09-21T01:04:38;6.93;;;6.13;;
36599;SDS011;35385;55.668;37.508;2022-09-21T01:05:39;7.40;;;6.13;;
36599;SDS011;35385;55.668;37.508;2022-09-21T01:06:39;9.03;;;6.53;;
36599;SDS011;35385;55.668;37.508;2022-09-21T01:07:41;8.90;;;6.00;;
36599;SDS011;35385;55.668;37.508;2022-09-21T01:08:46;6.95;;;5.25;;
36599;SDS011;35385;55.668;37.508;2022-09-21T01:09:53;10.45;;;5.55;;
36599;SDS011;35385;55.668;37.508;2022-09-21T01:18:12;7.45;;;5.65;;
36599;SDS011;35385;55.668;37.508;2022-09-21T01:21:59;7.78;;;5.60;;
36599;SDS011;35385;55.668;37.508;2022-09-21T01:29:29;6.22;;;4.57;;
36599;SDS011;35385;55.668;37.508;2022-09-21T01:30:37;9.50;;;5.47;;
36599;SDS011;35385;55.668;37.508;2022-09-21T01:31:45;6.60;;;5.25;;
36599;SDS011;35385;55.668;37.508;2022-09-21T01:32:55;7.90;;;5.88;;
36599;SDS011;35385;55.668;37.508;2022-09-21T01:34:04;8.63;;;5.72;;
36599;SDS011;35385;55.668;37.508;2022-09-21T01:35:16;7.85;;;5.38;;
36599;SDS011;35385;55.668;37.508;2022-09-21T01:36:24;5.88;;;5.28;;
36599;SDS011;35385;55.668;37.508;2022-09-21T01:37:38;8.63;;;5.30;;
36599;SDS011;35385;55.668;37.508;2022-09-21T01:38:49;9.50;;;5.40;;
36599;SDS011;35385;55.668;37.508;2022-09-21T01:39:54;10.88;;;5.60;;
36599;SDS011;35385;55.668;37.508;2022-09-21T01:41:01;7.25;;;5.38;;
36599;SDS011;35385;55.668;37.508;2022-09-21T01:42:05;9.52;;;5.93;;
36599;SDS011;35385;55.668;37.508;2022-09-21T01:43:08;6.13;;;5.03;;
36599;SDS011;35385;55.668;37.508;2022-09-21T01:44:17;7.13;;;5.05;;
36599;SDS011;35385;55.668;37.508;2022-09-21T01:45:31;10.18;;;5.53;;
36599;SDS011;35385;55.668;37.508;2022-09-21T01:46:36;8.43;;;5.28;;
36599;SDS011;35385;55.668;37.508;2022-09-21T01:47:38;8.27;;;5.57;;
36599;SDS011;35385;55.668;37.508;2022-09-21T01:48:43;8.23;;;5.75;;
36599;SDS011;35385;55.668;37.508;2022-09-21T01:49:47;8.63;;;6.13;;
36599;SDS011;35385;55.668;37.508;2022-09-21T01:50:54;9.40;;;6.57;;
36599;SDS011;35385;55.668;37.508;2022-09-21T01:51:58;11.60;;;6.57;;
36599;SDS011;35385;55.668;37.508;2022-09-21T01:53:10;8.18;;;6.57;;
36599;SDS011;35385;55.668;37.508;2022-09-21T01:54:18;9.82;;;6.68;;
36599;SDS011;35385;55.668;37.508;2022-09-21T01:55:23;7.15;;;5.85;;
36599;SDS011;35385;55.668;37.508;2022-09-21T01:56:30;11.05;;;6.18;;
36599;SDS011;35385;55.668;37.508;2022-09-21T02:00:08;6.85;;;5.50;;
36599;SDS011;35385;55.668;37.508;2022-09-21T02:01:10;6.57;;;5.22;;
36599;SDS011;35385;55.668;37.508;2022-09-21T02:03:18;6.07;;;5.13;;
36599;SDS011;35385;55.668;37.508;2022-09-21T02:03:51;6.68;;;4.95;;
36599;SDS011;35385;55.668;37.508;2022-09-21T02:04:58;8.70;;;5.20;;
36599;SDS011;35385;55.668;37.508;2022-09-21T02:06:00;8.23;;;6.15;;
36599;SDS011;35385;55.668;37.508;2022-09-21T02:07:02;8.38;;;4.95;;
36599;SDS011;35385;55.668;37.508;2022-09-21T02:08:04;7.73;;;5.20;;
36599;SDS011;35385;55.668;37.508;2022-09-21T02:09:06;7.60;;;5.35;;
36599;SDS011;35385;55.668;37.508;2022-09-21T02:10:08;7.22;;;4.88;;
36599;SDS011;35385;55.668;37.508;2022-09-21T02:11:16;8.32;;;5.22;;
36599;SDS011;35385;55.668;37.508;2022-09-21T02:12:16;8.67;;;5.43;;
36599;SDS011;35385;55.668;37.508;2022-09-21T02:13:17;7.47;;;5.53;;
36599;SDS011;35385;55.668;37.508;2022-09-21T02:14:20;10.95;;;5.70;;
36599;SDS011;35385;55.668;37.508;2022-09-21T02:15:23;8.68;;;5.40;;
36599;SDS011;35385;55.668;37.508;2022-09-21T02:21:03;8.10;;;5.43;;
36599;SDS011;35385;55.668;37.508;2022-09-21T02:25:44;7.85;;;5.60;;
36599;SDS011;35385;55.668;37.508;2022-09-21T02:27:15;6.78;;;5.57;;
36599;SDS011;35385;55.668;37.508;2022-09-21T02:28:42;7.05;;;5.03;;
36599;SDS011;35385;55.668;37.508;2022-09-21T02:31:10;8.87;;;5.67;;
36599;SDS011;35385;55.668;37.508;2022-09-21T02:34:07;9.43;;;4.88;;
36599;SDS011;35385;55.668;37.508;2022-09-21T02:37:23;6.28;;;5.28;;
36599;SDS011;35385;55.668;37.508;2022-09-21T02:42:33;8.63;;;5.70;;
36599;SDS011;35385;55.668;37.508;2022-09-21T02:43:39;8.30;;;5.82;;
36599;SDS011;35385;55.668;37.508;2022-09-21T02:44:49;8.82;;;5.25;;
36599;SDS011;35385;55.668;37.508;2022-09-21T02:45:56;7.70;;;5.53;;
36599;SDS011;35385;55.668;37.508;2022-09-21T02:47:05;5.85;;;4.72;;
36599;SDS011;35385;55.668;37.508;2022-09-21T02:48:19;7.03;;;5.43;;
36599;SDS011;35385;55.668;37.508;2022-09-21T02:49:26;11.38;;;8.32;;
36599;SDS011;35385;55.668;37.508;2022-09-21T02:50:35;10.63;;;8.05;;
36599;SDS011;35385;55.668;37.508;2022-09-21T02:51:45;7.85;;;6.30;;
36599;SDS011;35385;55.668;37.508;2022-09-21T02:52:49;11.73;;;8.18;;
36599;SDS011;35385;55.668;37.508;2022-09-21T02:53:52;7.45;;;6.43;;
36599;SDS011;35385;55.668;37.508;2022-09-21T02:55:55;13.27;;;9.90;;
36599;SDS011;35385;55.668;37.508;2022-09-21T02:56:59;11.05;;;7.43;;
36599;SDS011;35385;55.668;37.508;2022-09-21T02:58:01;10.35;;;7.43;;
36599;SDS011;35385;55.668;37.508;2022-09-21T02:59:05;8.98;;;6.25;;
36599;SDS011;35385;55.668;37.508;2022-09-21T03:01:09;11.43;;;6.78;;
36599;SDS011;35385;55.668;37.508;2022-09-21T03:02:12;7.80;;;5.40;;
36599;SDS011;35385;55.668;37.508;2022-09-21T03:03:17;9.05;;;5.70;;
36599;SDS011;35385;55.668;37.508;2022-09-21T03:04:19;8.95;;;6.30;;
36599;SDS011;35385;55.668;37.508;2022-09-21T03:05:21;10.00;;;6.05;;
36599;SDS011;35385;55.668;37.508;2022-09-21T03:06:22;8.03;;;5.33;;
36599;SDS011;35385;55.668;37.508;2022-09-21T03:07:22;7.77;;;5.80;;
36599;SDS011;35385;55.668;37.508;2022-09-21T03:08:23;9.33;;;6.57;;
36599;SDS011;35385;55.668;37.508;2022-09-21T03:09:23;6.87;;;5.23;;
36599;SDS011;35385;55.668;37.508;2022-09-21T03:10:24;9.17;;;6.23;;
36599;SDS011;35385;55.668;37.508;2022-09-21T03:11:24;9.20;;;5.93;;
36599;SDS011;35385;55.668;37.508;2022-09-21T03:12:25;8.33;;;5.73;;
36599;SDS011;35385;55.668;37.508;2022-09-21T03:13:26;7.83;;;5.47;;
36599;SDS011;35385;55.668;37.508;2022-09-21T03:14:26;6.97;;;5.87;;
36599;SDS011;35385;55.668;37.508;2022-09-21T03:15:27;8.03;;;5.93;;
36599;SDS011;35385;55.668;37.508;2022-09-21T03:16:27;8.63;;;6.37;;
36599;SDS011;35385;55.668;37.508;2022-09-21T03:17:28;8.43;;;6.17;;
36599;SDS011;35385;55.668;37.508;2022-09-21T03:18:29;9.37;;;6.50;;
36599;SDS011;35385;55.668;37.508;2022-09-21T03:19:30;7.20;;;5.72;;
36599;SDS011;35385;55.668;37.508;2022-09-21T03:20:31;10.03;;;5.77;;
36599;SDS011;35385;55.668;37.508;2022-09-21T03:22:33;10.02;;;5.80;;
36599;SDS011;35385;55.668;37.508;2022-09-21T03:23:33;10.20;;;5.70;;
36599;SDS011;35385;55.668;37.508;2022-09-21T03:24:34;9.13;;;6.00;;
36599;SDS011;35385;55.668;37.508;2022-09-21T03:25:46;8.70;;;6.40;;
36599;SDS011;35385;55.668;37.508;2022-09-21T03:26:47;8.63;;;6.00;;
36599;SDS011;35385;55.668;37.508;2022-09-21T03:27:47;11.80;;;5.80;;
36599;SDS011;35385;55.668;37.508;2022-09-21T03:28:52;9.80;;;6.13;;
36599;SDS011;35385;55.668;37.508;2022-09-21T03:29:53;11.38;;;6.25;;
36599;SDS011;35385;55.668;37.508;2022-09-21T03:30:54;9.97;;;6.13;;
36599;SDS011;35385;55.668;37.508;2022-09-21T03:31:54;9.60;;;5.97;;
36599;SDS011;35385;55.668;37.508;2022-09-21T03:32:55;8.80;;;6.10;;
36599;SDS011;35385;55.668;37.508;2022-09-21T03:33:55;11.10;;;6.30;;
36599;SDS011;35385;55.668;37.508;2022-09-21T03:34:56;10.77;;;6.40;;
36599;SDS011;35385;55.668;37.508;2022-09-21T03:35:56;8.97;;;6.70;;
36599;SDS011;35385;55.668;37.508;2022-09-21T03:36:57;7.83;;;6.50;;
36599;SDS011;35385;55.668;37.508;2022-09-21T03:37:57;10.53;;;6.97;;
36599;SDS011;35385;55.668;37.508;2022-09-21T03:38:58;13.27;;;7.38;;
36599;SDS011;35385;55.668;37.508;2022-09-21T03:39:59;11.30;;;8.27;;
36599;SDS011;35385;55.668;37.508;2022-09-21T03:40:59;12.97;;;8.00;;
36599;SDS011;35385;55.668;37.508;2022-09-21T03:42:00;10.63;;;8.00;;
36599;SDS011;35385;55.668;37.508;2022-09-21T03:43:01;12.15;;;8.32;;
36599;SDS011;35385;55.668;37.508;2022-09-21T03:44:02;13.60;;;7.47;;
36599;SDS011;35385;55.668;37.508;2022-09-21T03:45:03;12.00;;;7.90;;
36599;SDS011;35385;55.668;37.508;2022-09-21T03:46:04;12.95;;;8.30;;
36599;SDS011;35385;55.668;37.508;2022-09-21T03:47:05;13.37;;;7.87;;
36599;SDS011;35385;55.668;37.508;2022-09-21T03:48:05;12.30;;;8.13;;
36599;SDS011;35385;55.668;37.508;2022-09-21T03:49:06;14.25;;;8.48;;
36599;SDS011;35385;55.668;37.508;2022-09-21T03:50:07;14.67;;;7.80;;
36599;SDS011;35385;55.668;37.508;2022-09-21T03:51:08;13.90;;;8.60;;
36599;SDS011;35385;55.668;37.508;2022-09-21T03:52:08;12.37;;;7.80;;
36599;SDS011;35385;55.668;37.508;2022-09-21T03:53:09;16.43;;;8.33;;
36599;SDS011;35385;55.668;37.508;2022-09-21T03:54:10;13.77;;;7.93;;
36599;SDS011;35385;55.668;37.508;2022-09-21T03:55:11;13.10;;;7.70;;
36599;SDS011;35385;55.668;37.508;2022-09-21T03:56:12;14.73;;;7.90;;
36599;SDS011;35385;55.668;37.508;2022-09-21T03:57:12;14.70;;;7.70;;
36599;SDS011;35385;55.668;37.508;2022-09-21T03:58:13;13.40;;;7.97;;
36599;SDS011;35385;55.668;37.508;2022-09-21T03:59:13;13.67;;;7.67;;
36599;SDS011;35385;55.668;37.508;2022-09-21T04:00:14;11.63;;;7.87;;
36599;SDS011;35385;55.668;37.508;2022-09-21T04:01:15;13.80;;;7.13;;
36599;SDS011;35385;55.668;37.508;2022-09-21T04:02:16;10.97;;;7.93;;
36599;SDS011;35385;55.668;37.508;2022-09-21T04:03:16;10.70;;;7.83;;
36599;SDS011;35385;55.668;37.508;2022-09-21T04:04:17;9.97;;;7.60;;
36599;SDS011;35385;55.668;37.508;2022-09-21T04:05:17;14.27;;;8.13;;
36599;SDS011;35385;55.668;37.508;2022-09-21T04:06:18;12.07;;;7.67;;
36599;SDS011;35385;55.668;37.508;2022-09-21T04:07:19;10.63;;;8.00;;
36599;SDS011;35385;55.668;37.508;2022-09-21T04:08:19;12.17;;;7.50;;
36599;SDS011;35385;55.668;37.508;2022-09-21T04:09:20;10.33;;;7.00;;
36599;SDS011;35385;55.668;37.508;2022-09-21T04:10:21;13.27;;;7.07;;
36599;SDS011;35385;55.668;37.508;2022-09-21T04:11:26;11.18;;;7.22;;
36599;SDS011;35385;55.668;37.508;2022-09-21T04:12:27;15.13;;;6.55;;
36599;SDS011;35385;55.668;37.508;2022-09-21T04:13:28;12.00;;;7.30;;
36599;SDS011;35385;55.668;37.508;2022-09-21T04:14:28;10.17;;;6.97;;
36599;SDS011;35385;55.668;37.508;2022-09-21T04:15:29;11.30;;;7.03;;
36599;SDS011;35385;55.668;37.508;2022-09-21T04:16:30;11.52;;;7.57;;
36599;SDS011;35385;55.668;37.508;2022-09-21T04:17:30;12.70;;;8.23;;
36599;SDS011;35385;55.668;37.508;2022-09-21T04:18:31;10.57;;;7.17;;
36599;SDS011;35385;55.668;37.508;2022-09-21T04:19:31;9.33;;;6.87;;
36599;SDS011;35385;55.668;37.508;2022-09-21T04:20:32;12.60;;;7.70;;
36599;SDS011;35385;55.668;37.508;2022-09-21T04:21:32;12.57;;;7.33;;
36599;SDS011;35385;55.668;37.508;2022-09-21T04:22:33;12.27;;;6.93;;
36599;SDS011;35385;55.668;37.508;2022-09-21T04:23:35;13.50;;;7.57;;
36599;SDS011;35385;55.668;37.508;2022-09-21T04:24:36;16.40;;;8.50;;
36599;SDS011;35385;55.668;37.508;2022-09-21T04:25:39;12.35;;;8.30;;
36599;SDS011;35385;55.668;37.508;2022-09-21T04:27:41;15.63;;;8.00;;
36599;SDS011;35385;55.668;37.508;2022-09-21T04:28:42;15.88;;;7.82;;
36599;SDS011;35385;55.668;37.508;2022-09-21T04:29:43;19.10;;;8.80;;
36599;SDS011;35385;55.668;37.508;2022-09-21T04:30:43;16.27;;;9.27;;
36599;SDS011;35385;55.668;37.508;2022-09-21T04:31:44;14.20;;;8.60;;
36599;SDS011;35385;55.668;37.508;2022-09-21T04:32:44;15.43;;;9.20;;
36599;SDS011;35385;55.668;37.508;2022-09-21T04:33:48;12.50;;;8.80;;
36599;SDS011;35385;55.668;37.508;2022-09-21T04:34:50;15.23;;;8.65;;
36599;SDS011;35385;55.668;37.508;2022-09-21T04:35:54;16.93;;;9.47;;
36599;SDS011;35385;55.668;37.508;2022-09-21T04:36:55;17.48;;;9.13;;
36599;SDS011;35385;55.668;37.508;2022-09-21T04:37:56;21.17;;;9.68;;
36599;SDS011;35385;55.668;37.508;2022-09-21T04:38:57;14.20;;;8.50;;
36599;SDS011;35385;55.668;37.508;2022-09-21T04:39:59;17.55;;;9.23;;
36599;SDS011;35385;55.668;37.508;2022-09-21T04:41:00;14.17;;;8.87;;
36599;SDS011;35385;55.668;37.508;2022-09-21T04:42:02;13.27;;;9.10;;
36599;SDS011;35385;55.668;37.508;2022-09-21T04:43:03;21.15;;;9.65;;
36599;SDS011;35385;55.668;37.508;2022-09-21T04:44:04;13.93;;;9.20;;
36599;SDS011;35385;55.668;37.508;2022-09-21T04:45:05;16.10;;;9.20;;
36599;SDS011;35385;55.668;37.508;2022-09-21T04:46:07;13.32;;;9.48;;
36599;SDS011;35385;55.668;37.508;2022-09-21T04:47:09;14.77;;;9.10;;
36599;SDS011;35385;55.668;37.508;2022-09-21T04:48:09;17.10;;;9.17;;
36599;SDS011;35385;55.668;37.508;2022-09-21T04:49:10;17.35;;;9.90;;
36599;SDS011;35385;55.668;37.508;2022-09-21T04:50:11;17.23;;;9.30;;
36599;SDS011;35385;55.668;37.508;2022-09-21T04:51:12;19.37;;;8.77;;
36599;SDS011;35385;55.668;37.508;2022-09-21T04:52:14;19.05;;;9.43;;
36599;SDS011;35385;55.668;37.508;2022-09-21T04:53:15;12.87;;;8.80;;
36599;SDS011;35385;55.668;37.508;2022-09-21T04:54:16;15.73;;;8.83;;
36599;SDS011;35385;55.668;37.508;2022-09-21T04:55:16;20.80;;;9.20;;
36599;SDS011;35385;55.668;37.508;2022-09-21T04:56:17;19.40;;;9.83;;
36599;SDS011;35385;55.668;37.508;2022-09-21T04:57:17;16.23;;;9.83;;
36599;SDS011;35385;55.668;37.508;2022-09-21T04:58:18;15.57;;;8.43;;
36599;SDS011;35385;55.668;37.508;2022-09-21T04:59:18;17.00;;;8.23;;
36599;SDS011;35385;55.668;37.508;2022-09-21T05:00:19;14.47;;;7.33;;
36599;SDS011;35385;55.668;37.508;2022-09-21T05:01:20;10.75;;;7.15;;
36599;SDS011;35385;55.668;37.508;2022-09-21T05:02:21;13.43;;;7.10;;
36599;SDS011;35385;55.668;37.508;2022-09-21T05:03:22;11.47;;;7.40;;
36599;SDS011;35385;55.668;37.508;2022-09-21T05:05:24;11.18;;;7.32;;
36599;SDS011;35385;55.668;37.508;2022-09-21T05:06:24;12.23;;;7.87;;
36599;SDS011;35385;55.668;37.508;2022-09-21T05:07:25;14.77;;;8.53;;
36599;SDS011;35385;55.668;37.508;2022-09-21T05:08:26;11.50;;;6.30;;
36599;SDS011;35385;55.668;37.508;2022-09-21T05:09:45;13.50;;;6.78;;
36599;SDS011;35385;55.668;37.508;2022-09-21T05:11:04;12.32;;;7.22;;
36599;SDS011;35385;55.668;37.508;2022-09-21T05:12:06;16.88;;;7.78;;
36599;SDS011;35385;55.668;37.508;2022-09-21T05:13:06;15.90;;;7.20;;
36599;SDS011;35385;55.668;37.508;2022-09-21T05:14:07;10.63;;;7.10;;
36599;SDS011;35385;55.668;37.508;2022-09-21T05:15:08;13.65;;;7.40;;
36599;SDS011;35385;55.668;37.508;2022-09-21T05:16:13;13.05;;;7.28;;
36599;SDS011;35385;55.668;37.508;2022-09-21T05:17:14;15.43;;;8.50;;
36599;SDS011;35385;55.668;37.508;2022-09-21T05:18:14;12.40;;;7.87;;
36599;SDS011;35385;55.668;37.508;2022-09-21T05:19:15;13.13;;;7.60;;
36599;SDS011;35385;55.668;37.508;2022-09-21T05:20:16;15.43;;;7.78;;
36599;SDS011;35385;55.668;37.508;2022-09-21T05:21:16;16.70;;;7.30;;
36599;SDS011;35385;55.668;37.508;2022-09-21T05:22:17;11.03;;;7.13;;
36599;SDS011;35385;55.668;37.508;2022-09-21T05:23:18;10.25;;;7.30;;
36599;SDS011;35385;55.668;37.508;2022-09-21T05:24:18;16.97;;;7.47;;
36599;SDS011;35385;55.668;37.508;2022-09-21T05:25:19;12.53;;;7.03;;
36599;SDS011;35385;55.668;37.508;2022-09-21T05:26:19;15.33;;;7.57;;
36599;SDS011;35385;55.668;37.508;2022-09-21T05:27:20;15.57;;;8.03;;
36599;SDS011;35385;55.668;37.508;2022-09-21T05:28:20;11.23;;;7.00;;
36599;SDS011;35385;55.668;37.508;2022-09-21T05:29:21;13.20;;;7.13;;
36599;SDS011;35385;55.668;37.508;2022-09-21T05:30:22;10.30;;;7.17;;
36599;SDS011;35385;55.668;37.508;2022-09-21T05:31:29;13.40;;;6.60;;
36599;SDS011;35385;55.668;37.508;2022-09-21T05:34:07;18.50;;;7.13;;
36599;SDS011;35385;55.668;37.508;2022-09-21T05:35:23;11.32;;;7.57;;
36599;SDS011;35385;55.668;37.508;2022-09-21T05:38:12;11.38;;;7.03;;
36599;SDS011;35385;55.668;37.508;2022-09-21T05:39:17;13.82;;;7.38;;
36599;SDS011;35385;55.668;37.508;2022-09-21T05:40:18;12.90;;;7.20;;
36599;SDS011;35385;55.668;37.508;2022-09-21T05:41:19;15.45;;;7.43;;
36599;SDS011;35385;55.668;37.508;2022-09-21T05:42:20;12.53;;;7.20;;
36599;SDS011;35385;55.668;37.508;2022-09-21T05:43:20;16.77;;;8.90;;
36599;SDS011;35385;55.668;37.508;2022-09-21T05:44:21;15.27;;;7.97;;
36599;SDS011;35385;55.668;37.508;2022-09-21T05:45:22;19.40;;;9.40;;
36599;SDS011;35385;55.668;37.508;2022-09-21T05:48:02;15.40;;;8.25;;
36599;SDS011;35385;55.668;37.508;2022-09-21T05:51:51;15.02;;;7.72;;
36599;SDS011;35385;55.668;37.508;2022-09-21T05:54:16;16.70;;;7.68;;
36599;SDS011;35385;55.668;37.508;2022-09-21T05:58:06;14.07;;;7.43;;
36599;SDS011;35385;55.668;37.508;2022-09-21T05:59:24;15.93;;;7.68;;
36599;SDS011;35385;55.668;37.508;2022-09-21T06:03:33;12.80;;;7.30;;
36599;SDS011;35385;55.668;37.508;2022-09-21T06:05:35;12.77;;;7.40;;
36599;SDS011;35385;55.668;37.508;2022-09-21T06:06:36;13.20;;;7.77;;
36599;SDS011;35385;55.668;37.508;2022-09-21T06:07:36;10.07;;;7.10;;
36599;SDS011;35385;55.668;37.508;2022-09-21T06:08:37;8.73;;;6.70;;
36599;SDS011;35385;55.668;37.508;2022-09-21T06:09:37;12.20;;;7.30;;
36599;SDS011;35385;55.668;37.508;2022-09-21T06:10:38;13.83;;;6.83;;
36599;SDS011;35385;55.668;37.508;2022-09-21T06:11:38;12.93;;;7.00;;
36599;SDS011;35385;55.668;37.508;2022-09-21T06:12:39;16.13;;;7.80;;
36599;SDS011;35385;55.668;37.508;2022-09-21T06:13:40;15.97;;;7.47;;
36599;SDS011;35385;55.668;37.508;2022-09-21T06:14:40;14.03;;;6.70;;
36599;SDS011;35385;55.668;37.508;2022-09-21T06:15:41;12.27;;;6.87;;
36599;SDS011;35385;55.668;37.508;2022-09-21T06:16:42;12.87;;;7.47;;
36599;SDS011;35385;55.668;37.508;2022-09-21T06:17:42;9.93;;;7.27;;
36599;SDS011;35385;55.668;37.508;2022-09-21T06:18:43;14.33;;;6.87;;
36599;SDS011;35385;55.668;37.508;2022-09-21T06:19:43;9.73;;;6.67;;
36599;SDS011;35385;55.668;37.508;2022-09-21T06:20:44;11.60;;;7.07;;
36599;SDS011;35385;55.668;37.508;2022-09-21T06:21:45;10.07;;;6.45;;
36599;SDS011;35385;55.668;37.508;2022-09-21T06:22:46;15.30;;;7.00;;
36599;SDS011;35385;55.668;37.508;2022-09-21T06:23:46;15.70;;;6.83;;
36599;SDS011;35385;55.668;37.508;2022-09-21T06:24:46;13.23;;;6.50;;
36599;SDS011;35385;55.668;37.508;2022-09-21T06:25:50;15.60;;;7.40;;
36599;SDS011;35385;55.668;37.508;2022-09-21T06:26:51;14.77;;;7.32;;
36599;SDS011;35385;55.668;37.508;2022-09-21T06:27:52;9.73;;;6.53;;
36599;SDS011;35385;55.668;37.508;2022-09-21T06:28:53;14.57;;;7.20;;
36599;SDS011;35385;55.668;37.508;2022-09-21T06:29:54;13.63;;;7.38;;
36599;SDS011;35385;55.668;37.508;2022-09-21T06:30:55;15.77;;;6.90;;
36599;SDS011;35385;55.668;37.508;2022-09-21T06:31:56;13.07;;;7.00;;
36599;SDS011;35385;55.668;37.508;2022-09-21T06:32:58;13.10;;;7.30;;
36599;SDS011;35385;55.668;37.508;2022-09-21T06:33:59;10.70;;;7.95;;
36599;SDS011;35385;55.668;37.508;2022-09-21T06:35:00;15.23;;;7.13;;
36599;SDS011;35385;55.668;37.508;2022-09-21T06:36:00;11.10;;;6.90;;
36599;SDS011;35385;55.668;37.508;2022-09-21T06:37:01;13.10;;;6.90;;
36599;SDS011;35385;55.668;37.508;2022-09-21T06:38:03;10.87;;;6.57;;
36599;SDS011;35385;55.668;37.508;2022-09-21T06:39:05;14.98;;;7.25;;
36599;SDS011;35385;55.668;37.508;2022-09-21T06:40:06;14.50;;;6.73;;
36599;SDS011;35385;55.668;37.508;2022-09-21T06:41:07;13.93;;;6.93;;
36599;SDS011;35385;55.668;37.508;2022-09-21T06:42:07;12.07;;;7.23;;
36599;SDS011;35385;55.668;37.508;2022-09-21T06:43:08;16.70;;;7.10;;
36599;SDS011;35385;55.668;37.508;2022-09-21T06:44:08;11.63;;;6.70;;
36599;SDS011;35385;55.668;37.508;2022-09-21T06:45:09;13.47;;;6.93;;
36599;SDS011;35385;55.668;37.508;2022-09-21T06:46:09;12.33;;;6.90;;
36599;SDS011;35385;55.668;37.508;2022-09-21T06:47:10;12.13;;;6.63;;
36599;SDS011;35385;55.668;37.508;2022-09-21T06:48:10;10.37;;;5.90;;
36599;SDS011;35385;55.668;37.508;2022-09-21T06:49:11;14.07;;;6.87;;
36599;SDS011;35385;55.668;37.508;2022-09-21T06:50:11;15.10;;;7.17;;
36599;SDS011;35385;55.668;37.508;2022-09-21T06:51:12;15.63;;;6.60;;
36599;SDS011;35385;55.668;37.508;2022-09-21T06:52:12;14.40;;;6.67;;
36599;SDS011;35385;55.668;37.508;2022-09-21T06:53:13;22.17;;;8.43;;
36599;SDS011;35385;55.668;37.508;2022-09-21T06:54:14;15.43;;;6.87;;
36599;SDS011;35385;55.668;37.508;2022-09-21T06:55:14;12.70;;;5.93;;
36599;SDS011;35385;55.668;37.508;2022-09-21T06:56:15;11.20;;;7.13;;
36599;SDS011;35385;55.668;37.508;2022-09-21T06:57:15;15.10;;;7.90;;
36599;SDS011;35385;55.668;37.508;2022-09-21T06:58:17;11.90;;;7.40;;
36599;SDS011;35385;55.668;37.508;2022-09-21T06:59:18;12.65;;;7.10;;
36599;SDS011;35385;55.668;37.508;2022-09-21T07:00:19;15.07;;;7.70;;
36599;SDS011;35385;55.668;37.508;2022-09-21T07:01:20;16.47;;;7.60;;
36599;SDS011;35385;55.668;37.508;2022-09-21T07:02:20;13.23;;;7.50;;
36599;SDS011;35385;55.668;37.508;2022-09-21T07:03:21;13.90;;;7.20;;
36599;SDS011;35385;55.668;37.508;2022-09-21T07:04:21;17.03;;;7.27;;
36599;SDS011;35385;55.668;37.508;2022-09-21T07:05:24;13.02;;;7.10;;
36599;SDS011;35385;55.668;37.508;2022-09-21T07:06:24;11.48;;;6.80;;
36599;SDS011;35385;55.668;37.508;2022-09-21T07:07:25;12.67;;;7.00;;